Time;durP1;ratioP1;P1;durP2;ratioP2;P2;SDS_P1;SDS_P2;PMS_P1;PMS_P2;Temp;Humidity;BMP_temperature;BMP_pressure;BME280_temperature;BME280_humidity;BME280_pressure;Samples;Min_cycle;Max_cycle;Signal;HPM_P1;HPM_P2
2022/12/30 00:00:23;;;;;;;;;;;;;;;6.11;87.03;100908.09;5077011;28;19924;-67
2022/12/30 00:02:49;;;;;;;;;;;;;;;6.10;87.25;100909.03;5051045;28;19924;-65
2022/12/30 00:05:14;;;;;;;;;;;;;;;6.11;86.84;100905.44;5037229;28;19976;-65
2022/12/30 00:07:40;;;;;;;;;;;;;;;6.06;87.43;100915.38;5050105;28;19913;-67
2022/12/30 00:10:06;;;;;;;;;;;;;;;5.96;87.41;100918.47;5051278;28;20334;-65
2022/12/30 00:35:12;;;;;;;;;;;;;;;5.86;87.84;100931.19;5051861;28;19927;-67
2022/12/30 00:37:38;;;;;;;;;;;;;;;5.84;87.87;100928.59;5055519;28;19967;-67
2022/12/30 00:40:03;;;;;;;;;;;;;;;5.87;88.11;100933.72;5055401;28;19912;-67
2022/12/30 00:45:13;;;;;;;;;;;;;;;5.82;88.17;100938.34;5072549;28;19986;-67
2022/12/30 00:47:40;;;;;;;;;;;;;;;5.81;88.33;100934.00;5091640;28;20467;-67
2022/12/30 00:58:18;;;;;;;;;;;;;;;5.76;88.48;100935.97;5055710;28;19947;-65
2022/12/30 01:00:43;;;;;;;;;;;;;;;5.72;88.62;100933.53;5055542;28;19959;-67
2022/12/30 01:03:09;;;;;;;;;;;;;;;5.70;88.83;100936.22;5087493;28;19913;-65
2022/12/30 01:05:37;;;;;;;;;;;;;;;5.72;88.83;100936.16;5055205;28;19988;-65
2022/12/30 01:08:02;;;;;;;;;;;;;;;5.66;88.52;100946.03;5053483;28;19913;-68
2022/12/30 01:10:27;;;;;;;;;;;;;;;5.63;89.04;100932.97;5053843;28;19931;-65
2022/12/30 01:12:53;;;;;;;;;;;;;;;5.61;88.89;100939.25;5053843;28;19917;-67
2022/12/30 01:15:18;;;;;;;;;;;;;;;5.58;89.33;100950.78;5086853;28;19923;-67
2022/12/30 01:17:43;;;;;;;;;;;;;;;5.62;89.09;100954.16;5055554;28;19974;-65
2022/12/30 01:20:09;;;;;;;;;;;;;;;5.59;88.81;100947.22;5087187;28;20386;-67
2022/12/30 01:22:35;;;;;;;;;;;;;;;5.59;89.22;100943.72;5087472;28;19920;-65
2022/12/30 01:25:00;;;;;;;;;;;;;;;5.60;89.59;100940.16;5055413;28;20321;-65
2022/12/30 01:27:26;;;;;;;;;;;;;;;5.59;89.06;100941.97;5070328;28;19916;-67
2022/12/30 01:29:51;;;;;;;;;;;;;;;5.59;89.34;100944.59;5054633;28;20024;-67
2022/12/30 01:32:20;;;;;;;;;;;;;;;5.56;89.33;100949.13;5054873;28;20284;-65
2022/12/30 01:34:46;;;;;;;;;;;;;;;5.57;89.19;100951.69;5063566;28;20018;-67
2022/12/30 01:37:12;;;;;;;;;;;;;;;5.56;89.93;100954.38;5074103;28;19909;-67
2022/12/30 01:39:38;;;;;;;;;;;;;;;5.56;89.33;100962.31;5074120;28;19912;-67
2022/12/30 01:42:09;;;;;;;;;;;;;;;5.56;89.41;100957.91;5074698;28;19920;-67
2022/12/30 01:44:53;;;;;;;;;;;;;;;5.49;89.46;100968.75;5072501;28;19916;-67
2022/12/30 01:47:24;;;;;;;;;;;;;;;5.46;89.83;100967.09;5073030;28;20011;-67
2022/12/30 01:49:55;;;;;;;;;;;;;;;5.44;89.90;100969.81;5074503;28;19995;-67
2022/12/30 01:52:25;;;;;;;;;;;;;;;5.48;89.52;100975.81;5074148;28;20283;-65
2022/12/30 01:54:53;;;;;;;;;;;;;;;5.42;89.65;100979.56;5061291;28;19920;-67
2022/12/30 01:57:19;;;;;;;;;;;;;;;5.41;90.18;100974.31;5054419;28;19912;-65
2022/12/30 01:59:46;;;;;;;;;;;;;;;5.43;89.86;100981.25;5054051;28;19916;-67
2022/12/30 02:02:14;;;;;;;;;;;;;;;5.40;89.43;100989.28;5055733;28;19919;-67
2022/12/30 02:04:40;;;;;;;;;;;;;;;5.42;90.03;100989.25;5060030;28;20375;-65
2022/12/30 02:07:15;;;;;;;;;;;;;;;5.40;89.95;100991.09;5074651;28;19935;-67
2022/12/30 02:09:40;;;;;;;;;;;;;;;5.40;89.88;100981.38;5071945;28;20007;-67
2022/12/30 02:12:06;;;;;;;;;;;;;;;5.41;90.45;100966.41;5074135;28;20647;-67
2022/12/30 02:14:34;;;;;;;;;;;;;;;5.43;89.97;100981.25;5060414;28;19919;-66
2022/12/30 02:17:04;;;;;;;;;;;;;;;5.50;89.44;100974.00;5054114;28;20284;-65
2022/12/30 02:19:30;;;;;;;;;;;;;;;5.46;89.86;100959.19;5053928;28;19915;-65
2022/12/30 02:21:58;;;;;;;;;;;;;;;5.47;90.00;100959.13;5065059;28;19999;-65
2022/12/30 02:24:26;;;;;;;;;;;;;;;5.47;90.01;100959.13;5063401;28;19912;-65
2022/12/30 02:27:12;;;;;;;;;;;;;;;5.45;90.29;100957.47;5052779;28;20249;-65
2022/12/30 02:29:49;;;;;;;;;;;;;;;5.49;89.74;100960.84;5085600;28;19909;-67
2022/12/30 02:32:23;;;;;;;;;;;;;;;5.45;90.51;100946.94;5052625;28;19912;-67
2022/12/30 02:34:51;;;;;;;;;;;;;;;5.43;90.32;100940.84;5045049;28;19928;-67
2022/12/30 02:37:19;;;;;;;;;;;;;;;5.41;90.63;100934.75;5053708;28;19909;-67
2022/12/30 02:39:50;;;;;;;;;;;;;;;5.41;90.28;100933.00;5053463;28;19909;-65
2022/12/30 02:45:18;;;;;;;;;;;;;;;5.34;90.60;100938.59;5067397;28;20007;-67
2022/12/30 02:48:02;;;;;;;;;;;;;;;5.32;90.12;100930.72;5072378;28;19931;-67
2022/12/30 02:53:15;;;;;;;;;;;;;;;5.27;90.04;100931.84;5072938;28;19935;-66
2022/12/30 02:55:40;;;;;;;;;;;;;;;5.25;90.08;100916.06;5071417;28;19919;-65
2022/12/30 02:58:05;;;;;;;;;;;;;;;5.18;90.10;100910.19;5072978;28;20201;-65
2022/12/30 03:03:59;;;;;;;;;;;;;;;5.12;90.85;100902.53;5052975;28;19916;-67
2022/12/30 03:06:30;;;;;;;;;;;;;;;5.11;90.54;100905.22;5052818;28;19938;-67
2022/12/30 03:09:01;;;;;;;;;;;;;;;5.00;90.68;100900.38;5052689;28;20332;-65
2022/12/30 03:11:28;;;;;;;;;;;;;;;4.96;90.90;100904.03;5051524;28;19966;-65
2022/12/30 03:13:56;;;;;;;;;;;;;;;4.97;90.58;100905.75;5052859;28;19909;-67
2022/12/30 03:16:21;;;;;;;;;;;;;;;4.93;91.08;100907.66;5052966;28;19909;-67
2022/12/30 03:18:47;;;;;;;;;;;;;;;4.89;91.20;100911.34;5053297;28;19919;-67
2022/12/30 03:21:13;;;;;;;;;;;;;;;4.87;91.24;100915.78;5053159;28;19916;-67
2022/12/30 03:27:09;;;;;;;;;;;;;;;4.86;91.13;100902.69;5052459;28;20333;-67
2022/12/30 03:29:12;;;;;;;;;;;;;;;4.91;91.01;100903.34;5045267;28;19905;-65
2022/12/30 03:31:37;;;;;;;;;;;;;;;4.84;91.08;100900.09;5052741;28;19982;-67
2022/12/30 03:34:04;;;;;;;;;;;;;;;4.84;90.68;100897.47;5059773;28;19920;-65
2022/12/30 03:36:32;;;;;;;;;;;;;;;4.85;91.17;100900.94;5065506;28;19969;-67
2022/12/30 03:39:02;;;;;;;;;;;;;;;4.81;91.45;100896.72;5054824;28;19921;-67
2022/12/30 03:41:29;;;;;;;;;;;;;;;4.78;91.52;100893.28;5059161;28;19935;-67
2022/12/30 03:43:55;;;;;;;;;;;;;;;4.76;91.90;100896.88;5070041;28;20564;-67
2022/12/30 03:46:25;;;;;;;;;;;;;;;4.70;91.83;100890.06;5069033;28;19963;-67
2022/12/30 03:48:50;;;;;;;;;;;;;;;4.68;91.96;100897.22;5070541;28;19908;-67
2022/12/30 03:51:16;;;;;;;;;;;;;;;4.74;91.84;100898.75;5062804;28;19970;-67
2022/12/30 03:53:42;;;;;;;;;;;;;;;4.61;91.86;100900.97;5052258;28;19920;-67
2022/12/30 03:56:07;;;;;;;;;;;;;;;4.58;91.85;100894.97;5069588;28;19920;-67
2022/12/30 03:58:32;;;;;;;;;;;;;;;4.54;91.75;100902.13;5072075;28;20371;-67
2022/12/30 04:00:57;;;;;;;;;;;;;;;4.50;91.89;100901.38;5088395;28;19916;-65
2022/12/30 04:03:24;;;;;;;;;;;;;;;4.47;92.49;100901.50;5065545;28;20303;-67
2022/12/30 04:05:52;;;;;;;;;;;;;;;4.51;91.74;100913.63;5064112;28;19912;-65
2022/12/30 04:08:18;;;;;;;;;;;;;;;4.43;92.45;100909.56;5069419;28;19912;-67
2022/12/30 04:10:44;;;;;;;;;;;;;;;4.43;92.33;100915.69;5067826;28;19919;-65
2022/12/30 04:13:09;;;;;;;;;;;;;;;4.41;92.95;100914.00;5101729;28;20303;-65
2022/12/30 04:15:34;;;;;;;;;;;;;;;4.40;92.63;100917.56;5102291;28;19927;-65
2022/12/30 04:17:59;;;;;;;;;;;;;;;4.38;92.55;100924.66;5067763;28;19916;-67
2022/12/30 04:20:25;;;;;;;;;;;;;;;4.35;92.85;100925.63;5102171;28;19923;-65
2022/12/30 04:22:52;;;;;;;;;;;;;;;4.36;93.08;100922.09;5069986;28;19939;-67
2022/12/30 04:25:18;;;;;;;;;;;;;;;4.42;91.78;100923.66;5081201;28;19921;-65
2022/12/30 04:27:43;;;;;;;;;;;;;;;4.37;93.10;100922.94;5071645;28;19920;-65
2022/12/30 04:30:09;;;;;;;;;;;;;;;4.38;92.93;100917.63;5101957;28;19950;-67
2022/12/30 04:32:37;;;;;;;;;;;;;;;4.35;92.69;100909.81;5085670;28;20012;-65
2022/12/30 04:35:03;;;;;;;;;;;;;;;4.37;92.71;100917.69;5051705;28;20268;-65
2022/12/30 04:37:28;;;;;;;;;;;;;;;4.37;92.98;100912.41;5052991;28;19923;-67
2022/12/30 04:39:54;;;;;;;;;;;;;;;4.35;92.98;100909.81;5083340;28;19919;-67
2022/12/30 04:42:19;;;;;;;;;;;;;;;4.32;93.14;100907.31;5084229;28;19956;-67
2022/12/30 04:44:44;;;;;;;;;;;;;;;4.28;93.99;100909.19;5061831;28;19991;-67
2022/12/30 04:47:10;;;;;;;;;;;;;;;4.30;93.46;100912.66;5070370;28;19916;-65
2022/12/30 04:49:35;;;;;;;;;;;;;;;4.28;93.68;100908.34;5071441;28;20459;-67
2022/12/30 04:52:00;;;;;;;;;;;;;;;4.25;93.90;100904.03;5070262;28;19920;-65
2022/12/30 04:54:26;;;;;;;;;;;;;;;4.22;93.31;100906.78;5052991;28;20284;-66
2022/12/30 04:56:51;;;;;;;;;;;;;;;4.21;94.07;100914.75;5071501;28;19908;-67
2022/12/30 04:59:19;;;;;;;;;;;;;;;4.20;94.40;100903.34;5087021;28;20003;-65
2022/12/30 05:01:47;;;;;;;;;;;;;;;4.19;94.35;100901.63;5086568;28;20315;-65
2022/12/30 05:04:12;;;;;;;;;;;;;;;4.19;94.84;100906.03;5063783;28;20389;-67
2022/12/30 05:06:38;;;;;;;;;;;;;;;4.20;94.42;100903.34;5083682;28;19913;-67
2022/12/30 05:09:03;;;;;;;;;;;;;;;4.18;94.87;100893.81;5082892;28;20054;-66
2022/12/30 05:11:28;;;;;;;;;;;;;;;4.18;94.34;100899.06;5054094;28;19916;-66
2022/12/30 05:13:53;;;;;;;;;;;;;;;4.16;93.93;100891.22;5055855;28;19909;-65
2022/12/30 05:16:19;;;;;;;;;;;;;;;4.16;94.26;100891.22;5090316;28;19916;-67
2022/12/30 05:18:44;;;;;;;;;;;;;;;4.16;94.01;100883.31;5074544;28;19912;-67
2022/12/30 05:21:09;;;;;;;;;;;;;;;4.15;96.16;100886.00;5074087;28;20337;-67
2022/12/30 05:26:19;;;;;;;;;;;;;;;4.13;96.27;100890.47;5054370;28;20330;-65
2022/12/30 05:28:45;;;;;;;;;;;;;;;4.19;95.89;100877.94;5066428;28;19916;-65
2022/12/30 05:31:11;;;;;;;;;;;;;;;4.23;95.41;100876.91;5074989;28;20453;-67
2022/12/30 05:33:36;;;;;;;;;;;;;;;4.17;96.30;100881.53;5065101;28;19912;-67
2022/12/30 05:36:02;;;;;;;;;;;;;;;4.23;95.62;100890.06;5054480;28;19921;-65
2022/12/30 05:38:27;;;;;;;;;;;;;;;4.18;95.29;100892.03;5055199;28;19916;-67
2022/12/30 05:40:52;;;;;;;;;;;;;;;4.19;96.44;100903.41;5053655;28;20299;-67
2022/12/30 05:43:18;;;;;;;;;;;;;;;4.21;95.83;100891.06;5053277;28;19916;-67
2022/12/30 05:45:45;;;;;;;;;;;;;;;4.21;96.26;100885.81;5087096;28;20365;-65
2022/12/30 05:48:10;;;;;;;;;;;;;;;4.21;97.67;100885.81;5087102;28;20008;-65
2022/12/30 05:50:36;;;;;;;;;;;;;;;4.21;97.24;100883.16;5052947;28;20023;-67
2022/12/30 05:53:03;;;;;;;;;;;;;;;4.25;97.42;100880.34;5069488;28;20342;-67
2022/12/30 05:55:29;;;;;;;;;;;;;;;4.26;97.52;100887.31;5051894;28;19917;-66
2022/12/30 05:57:54;;;;;;;;;;;;;;;4.27;96.39;100881.16;5054296;28;20426;-65
2022/12/30 06:00:20;;;;;;;;;;;;;;;4.28;98.05;100877.59;5067101;28;20394;-67
2022/12/30 06:02:45;;;;;;;;;;;;;;;4.29;97.90;100879.34;5071474;28;19973;-66
2022/12/30 06:05:10;;;;;;;;;;;;;;;4.38;97.13;100878.13;5062378;28;19912;-67
2022/12/30 06:07:36;;;;;;;;;;;;;;;4.37;96.77;100873.78;5090232;28;19920;-67
2022/12/30 06:10:01;;;;;;;;;;;;;;;4.38;97.22;100880.75;5059364;28;19918;-67
2022/12/30 06:12:27;;;;;;;;;;;;;;;4.45;97.78;100874.34;5074099;28;19913;-66
2022/12/30 06:14:52;;;;;;;;;;;;;;;4.43;96.70;100868.28;5073785;28;20306;-66
2022/12/30 06:17:18;;;;;;;;;;;;;;;4.41;96.99;100863.97;5072634;28;19915;-67
2022/12/30 06:19:44;;;;;;;;;;;;;;;4.41;97.16;100859.59;5062108;28;19916;-66
2022/12/30 06:22:09;;;;;;;;;;;;;;;4.48;97.06;100853.19;5053759;28;19958;-65
2022/12/30 06:24:34;;;;;;;;;;;;;;;4.51;96.66;100850.44;5052749;28;19912;-67
2022/12/30 06:27:00;;;;;;;;;;;;;;;4.46;97.59;100848.88;5053790;28;19912;-67
2022/12/30 06:29:26;;;;;;;;;;;;;;;4.45;98.17;100847.16;5054511;28;19921;-65
2022/12/30 06:31:51;;;;;;;;;;;;;;;4.44;98.45;100848.06;5054140;28;20430;-66
2022/12/30 06:34:16;;;;;;;;;;;;;;;4.40;98.33;100844.69;5053127;28;20408;-67
2022/12/30 06:36:41;;;;;;;;;;;;;;;4.40;98.55;100846.47;5052514;28;19908;-67
2022/12/30 06:39:07;;;;;;;;;;;;;;;4.42;98.45;100837.59;5085147;28;19924;-67
2022/12/30 06:41:33;;;;;;;;;;;;;;;4.45;98.36;100836.63;5054225;28;19912;-66
2022/12/30 06:43:58;;;;;;;;;;;;;;;4.47;97.92;100824.25;5085646;28;19916;-67
2022/12/30 06:46:23;;;;;;;;;;;;;;;4.47;97.48;100825.13;5053618;28;19908;-66
2022/12/30 06:48:48;;;;;;;;;;;;;;;4.48;97.96;100826.00;5052880;28;19967;-67
2022/12/30 06:51:14;;;;;;;;;;;;;;;4.50;98.10;100813.59;5085881;28;19913;-67
2022/12/30 06:53:39;;;;;;;;;;;;;;;4.46;97.95;100809.38;5052815;28;19908;-66
2022/12/30 06:56:06;;;;;;;;;;;;;;;4.44;97.81;100803.31;5053261;28;19909;-65
2022/12/30 06:58:32;;;;;;;;;;;;;;;4.46;97.64;100797.06;5055980;28;19912;-66
2022/12/30 07:00:57;;;;;;;;;;;;;;;4.46;98.24;100794.44;5072982;28;19978;-66
2022/12/30 07:03:24;;;;;;;;;;;;;;;4.46;98.28;100790.94;5071323;28;20410;-65
2022/12/30 07:05:50;;;;;;;;;;;;;;;4.46;98.67;100785.69;5058592;28;19935;-66
2022/12/30 07:08:16;;;;;;;;;;;;;;;4.44;99.08;100775.22;5051013;28;19927;-65
2022/12/30 07:10:41;;;;;;;;;;;;;;;4.47;98.18;100777.72;5051725;28;19944;-66
2022/12/30 07:13:07;;;;;;;;;;;;;;;4.48;97.75;100774.16;5052474;28;20436;-66
2022/12/30 07:15:32;;;;;;;;;;;;;;;4.46;98.11;100775.16;5052669;28;20352;-66
2022/12/30 07:17:58;;;;;;;;;;;;;;;4.52;98.23;100767.84;5070004;28;20046;-65
2022/12/30 07:20:23;;;;;;;;;;;;;;;4.47;98.72;100763.69;5072787;28;19931;-66
2022/12/30 07:22:49;;;;;;;;;;;;;;;4.51;98.76;100771.41;5072881;28;19915;-65
2022/12/30 07:25:16;;;;;;;;;;;;;;;4.54;99.48;100763.41;5071665;28;19999;-66
2022/12/30 07:27:42;;;;;;;;;;;;;;;4.55;99.51;100761.63;5053070;28;19913;-66
2022/12/30 07:30:08;;;;;;;;;;;;;;;4.55;99.32;100758.97;5084877;28;20387;-65
2022/12/30 07:32:33;;;;;;;;;;;;;;;4.55;98.51;100757.19;5053426;28;19923;-66
2022/12/30 07:34:59;;;;;;;;;;;;;;;4.59;98.11;100747.44;5087986;28;19928;-65
2022/12/30 07:37:24;;;;;;;;;;;;;;;4.60;99.27;100735.97;5070505;28;19926;-65
2022/12/30 07:39:50;;;;;;;;;;;;;;;4.63;99.35;100737.63;5070594;28;19999;-65
2022/12/30 07:42:15;;;;;;;;;;;;;;;4.80;97.76;100744.84;5072398;28;19912;-66
2022/12/30 07:44:41;;;;;;;;;;;;;;;4.69;99.60;100727.69;5065260;28;19975;-66
2022/12/30 07:47:06;;;;;;;;;;;;;;;4.73;99.53;100728.41;5057766;28;20015;-66
2022/12/30 07:49:31;;;;;;;;;;;;;;;4.73;99.37;100710.81;5098160;28;19990;-66
2022/12/30 07:51:56;;;;;;;;;;;;;;;4.80;98.93;100711.44;5072078;28;19912;-66
2022/12/30 07:54:22;;;;;;;;;;;;;;;4.84;98.92;100712.16;5066119;28;19959;-66
2022/12/30 07:56:47;;;;;;;;;;;;;;;4.86;99.23;100705.06;5083731;28;19923;-65
2022/12/30 07:59:15;;;;;;;;;;;;;;;4.90;99.38;100696.94;5051975;28;19991;-66
2022/12/30 08:01:41;;;;;;;;;;;;;;;5.00;99.06;100695.66;5083369;28;19913;-66
2022/12/30 08:04:06;;;;;;;;;;;;;;;4.92;99.32;100694.25;5051876;28;20299;-65
2022/12/30 08:06:31;;;;;;;;;;;;;;;4.97;99.25;100684.38;5061142;28;19920;-66
2022/12/30 08:08:57;;;;;;;;;;;;;;;4.97;99.29;100679.97;5069727;28;20394;-66
2022/12/30 08:11:22;;;;;;;;;;;;;;;5.08;98.63;100676.88;5071751;28;20355;-66
2022/12/30 08:13:47;;;;;;;;;;;;;;;5.08;98.92;100676.88;5069069;28;19995;-65
2022/12/30 08:16:16;;;;;;;;;;;;;;;5.12;98.95;100673.19;5063267;28;19986;-65
2022/12/30 08:18:42;;;;;;;;;;;;;;;5.16;98.68;100672.13;5050390;28;20375;-66
2022/12/30 08:21:09;;;;;;;;;;;;;;;5.15;99.10;100666.94;5051949;28;19909;-65
2022/12/30 08:23:34;;;;;;;;;;;;;;;5.17;99.15;100655.38;5051412;28;19956;-64
2022/12/30 08:26:03;;;;;;;;;;;;;;;5.22;99.02;100669.22;5063761;28;19990;-64
2022/12/30 08:28:29;;;;;;;;;;;;;;;5.27;98.83;100661.13;5063424;28;19912;-65
2022/12/30 08:30:56;;;;;;;;;;;;;;;5.31;98.32;100670.59;5050685;28;20374;-65
2022/12/30 08:33:22;;;;;;;;;;;;;;;5.34;98.69;100662.53;5053829;28;19930;-66
2022/12/30 08:35:47;;;;;;;;;;;;;;;5.41;98.02;100649.94;5062225;28;20007;-66
2022/12/30 08:38:13;;;;;;;;;;;;;;;5.49;98.47;100641.69;5051293;28;19909;-65
2022/12/30 08:40:38;;;;;;;;;;;;;;;5.45;98.61;100638.34;5051425;28;19912;-66
2022/12/30 08:43:04;;;;;;;;;;;;;;;5.57;98.35;100637.78;5084016;28;19962;-66
2022/12/30 08:45:29;;;;;;;;;;;;;;;5.50;98.66;100631.09;5054497;28;19916;-66
2022/12/30 08:47:54;;;;;;;;;;;;;;;5.57;98.25;100621.94;5066817;28;19924;-66
2022/12/30 08:50:19;;;;;;;;;;;;;;;5.60;97.99;100615.69;5066538;28;19999;-66
2022/12/30 08:52:45;;;;;;;;;;;;;;;5.60;97.99;100618.31;5108052;28;19916;-66
2022/12/30 08:55:12;;;;;;;;;;;;;;;5.63;98.26;100618.19;5085424;28;19916;-65
2022/12/30 08:57:38;;;;;;;;;;;;;;;5.68;98.12;100614.41;5055362;28;19913;-65
2022/12/30 09:00:04;;;;;;;;;;;;;;;5.74;97.45;100607.97;5055015;28;20193;-65
2022/12/30 09:02:29;;;;;;;;;;;;;;;5.82;97.24;100604.97;5055215;28;19915;-66
2022/12/30 09:04:54;;;;;;;;;;;;;;;5.80;97.39;100604.19;5062906;28;19919;-66
2022/12/30 09:07:20;;;;;;;;;;;;;;;5.89;97.41;100596.69;5056624;28;20428;-66
2022/12/30 09:09:46;;;;;;;;;;;;;;;5.84;97.27;100597.84;5083728;28;20291;-66
2022/12/30 09:12:14;;;;;;;;;;;;;;;5.89;97.05;100588.78;5069407;28;20379;-66
2022/12/30 09:14:39;;;;;;;;;;;;;;;5.85;96.40;100560.84;5072872;28;19918;-66
2022/12/30 09:17:05;;;;;;;;;;;;;;;5.99;96.50;100577.81;5068942;28;19998;-66
2022/12/30 09:19:32;;;;;;;;;;;;;;;6.01;96.57;100571.53;5100328;28;20023;-65
2022/12/30 09:21:58;;;;;;;;;;;;;;;6.11;95.94;100567.50;5086792;28;19920;-65
2022/12/30 09:24:23;;;;;;;;;;;;;;;6.12;95.71;100576.28;5059899;28;20376;-66
2022/12/30 09:26:49;;;;;;;;;;;;;;;6.13;96.06;100572.72;5086360;28;19944;-65
2022/12/30 09:29:17;;;;;;;;;;;;;;;6.15;95.92;100576.16;5054092;28;20356;-66
2022/12/30 09:31:42;;;;;;;;;;;;;;;6.26;95.46;100570.31;5063207;28;19924;-66
2022/12/30 09:34:08;;;;;;;;;;;;;;;6.32;95.06;100567.38;5067983;28;19951;-65
2022/12/30 09:36:33;;;;;;;;;;;;;;;6.32;94.94;100568.25;5066445;28;19912;-66
2022/12/30 09:38:58;;;;;;;;;;;;;;;6.31;94.50;100555.94;5054444;28;19925;-65
2022/12/30 09:43:14;;;;;;;;;;;;;;;6.41;94.24;100556.31;5032899;28;19987;-61
2022/12/30 09:44:29;;;;;;;;;;;;;;;6.44;94.51;100555.31;5057801;28;19916;-66
2022/12/30 09:46:57;;;;;;;;;;;;;;;6.45;94.48;100538.56;5062624;28;19954;-66
2022/12/30 09:49:53;;;;;;;;;;;;;;;6.46;94.37;100529.69;5073240;28;19915;-66
2022/12/30 09:52:24;;;;;;;;;;;;;;;6.53;94.00;100531.06;5055044;28;19912;-65
2022/12/30 09:54:58;;;;;;;;;;;;;;;6.53;94.11;100521.38;5052702;28;19916;-66
2022/12/30 09:57:30;;;;;;;;;;;;;;;6.58;93.84;100518.50;5053837;28;20003;-66
2022/12/30 09:59:56;;;;;;;;;;;;;;;6.59;93.68;100523.72;5052502;28;19917;-66
2022/12/30 10:02:27;;;;;;;;;;;;;;;6.60;94.12;100522.75;5054098;28;20283;-66
2022/12/30 10:04:54;;;;;;;;;;;;;;;6.66;93.40;100511.03;5054798;28;19947;-65
2022/12/30 10:07:40;;;;;;;;;;;;;;;6.75;92.75;100501.75;5053983;28;19999;-66
2022/12/30 10:10:19;;;;;;;;;;;;;;;6.71;93.14;100493.16;5051835;28;19909;-67
2022/12/30 10:12:50;;;;;;;;;;;;;;;6.76;92.85;100491.09;5057576;28;19932;-65
2022/12/30 10:15:39;;;;;;;;;;;;;;;6.82;92.85;100497.84;5073988;28;19915;-66
2022/12/30 10:18:23;;;;;;;;;;;;;;;6.93;92.54;100468.19;5072722;28;19919;-66
2022/12/30 10:21:01;;;;;;;;;;;;;;;6.85;92.46;100460.69;5073706;28;20002;-65
2022/12/30 10:23:29;;;;;;;;;;;;;;;6.98;91.90;100458.25;5071435;28;19916;-65
2022/12/30 10:25:54;;;;;;;;;;;;;;;6.89;92.07;100435.81;5073975;28;19915;-67
2022/12/30 10:28:24;;;;;;;;;;;;;;;6.90;92.29;100434.00;5070052;28;19916;-66
2022/12/30 10:30:49;;;;;;;;;;;;;;;6.93;92.04;100434.69;5055453;28;19958;-66
2022/12/30 10:33:19;;;;;;;;;;;;;;;7.11;90.63;100424.88;5082017;28;19948;-67
2022/12/30 10:35:45;;;;;;;;;;;;;;;7.01;91.65;100423.69;5053572;28;19924;-67
2022/12/30 10:38:11;;;;;;;;;;;;;;;7.18;91.15;100410.41;5053065;28;19935;-66
2022/12/30 10:40:56;;;;;;;;;;;;;;;7.10;91.08;100411.75;5085412;28;19916;-66
2022/12/30 10:43:45;;;;;;;;;;;;;;;7.16;90.87;100399.03;5053891;28;19916;-66
2022/12/30 10:46:22;;;;;;;;;;;;;;;7.16;90.96;100391.09;5053575;28;20394;-64
2022/12/30 10:48:56;;;;;;;;;;;;;;;7.18;91.13;100383.94;5053257;28;19955;-66
2022/12/30 10:51:24;;;;;;;;;;;;;;;7.23;90.75;100362.50;5064739;28;19919;-66
2022/12/30 10:53:50;;;;;;;;;;;;;;;7.27;90.01;100364.91;5072689;28;19912;-67
2022/12/30 10:56:26;;;;;;;;;;;;;;;7.31;90.11;100352.34;5073103;28;20002;-66
2022/12/30 10:58:53;;;;;;;;;;;;;;;7.39;89.63;100342.19;5071716;28;20419;-67
2022/12/30 11:01:21;;;;;;;;;;;;;;;7.41;88.97;100329.72;5071046;28;19931;-67
2022/12/30 11:03:51;;;;;;;;;;;;;;;7.47;89.34;100321.44;5073066;28;20287;-66
2022/12/30 11:06:21;;;;;;;;;;;;;;;7.43;89.92;100325.19;5072122;28;19961;-67
2022/12/30 11:08:47;;;;;;;;;;;;;;;7.47;89.10;100312.63;5070965;28;20333;-66
2022/12/30 11:11:12;;;;;;;;;;;;;;;7.48;89.38;100315.19;5069505;28;19921;-66
2022/12/30 11:16:26;;;;;;;;;;;;;;;7.49;88.94;100292.22;5071247;28;20026;-67
2022/12/30 11:18:51;;;;;;;;;;;;;;;7.46;89.43;100281.81;5071015;28;20383;-66
2022/12/30 11:21:28;;;;;;;;;;;;;;;7.53;89.23;100269.94;5088047;28;19908;-66
2022/12/30 11:23:57;;;;;;;;;;;;;;;7.56;88.62;100269.75;5070548;28;19935;-67
2022/12/30 11:26:24;;;;;;;;;;;;;;;7.59;88.21;100268.69;5072757;28;20045;-65
2022/12/30 11:28:52;;;;;;;;;;;;;;;7.59;88.58;100251.06;5072481;28;19915;-66
2022/12/30 11:31:18;;;;;;;;;;;;;;;7.57;88.42;100239.69;5072316;28;19916;-65
2022/12/30 11:33:47;;;;;;;;;;;;;;;7.59;88.92;100234.31;5075026;28;19916;-65
2022/12/30 11:36:16;;;;;;;;;;;;;;;7.59;88.42;100216.66;5052758;28;19952;-65
2022/12/30 11:38:43;;;;;;;;;;;;;;;7.58;88.69;100204.34;5050444;28;19915;-65
2022/12/30 11:41:17;;;;;;;;;;;;;;;7.66;87.79;100209.19;5052372;28;20276;-65
2022/12/30 11:43:46;;;;;;;;;;;;;;;7.69;88.26;100191.31;5053484;28;20300;-65
2022/12/30 11:46:15;;;;;;;;;;;;;;;7.73;87.69;100179.59;5051240;28;19948;-64
2022/12/30 11:48:51;;;;;;;;;;;;;;;7.79;87.30;100175.69;5052132;28;20264;-65
2022/12/30 11:51:18;;;;;;;;;;;;;;;7.86;86.72;100162.94;5052353;28;19909;-65
2022/12/30 11:53:44;;;;;;;;;;;;;;;7.93;86.75;100151.00;5066128;28;19908;-64
2022/12/30 11:56:10;;;;;;;;;;;;;;;7.90;86.96;100145.91;5070859;28;19935;-65
2022/12/30 11:58:37;;;;;;;;;;;;;;;7.90;87.59;100127.38;5071954;28;19913;-65
2022/12/30 12:01:04;;;;;;;;;;;;;;;7.91;86.92;100114.06;5071984;28;20014;-64
2022/12/30 12:03:30;;;;;;;;;;;;;;;7.99;85.98;100115.34;5070018;28;20234;-65
2022/12/30 12:06:07;;;;;;;;;;;;;;;7.96;86.76;100119.03;5070641;28;20011;-65
2022/12/30 12:08:51;;;;;;;;;;;;;;;8.04;85.74;100110.63;5069924;28;19957;-65
2022/12/30 12:11:20;;;;;;;;;;;;;;;8.17;85.43;100101.75;5071858;28;19991;-64
2022/12/30 12:13:57;;;;;;;;;;;;;;;8.12;86.16;100100.41;5053322;28;19909;-64
2022/12/30 12:16:29;;;;;;;;;;;;;;;8.10;86.15;100094.34;5051923;28;20310;-65
2022/12/30 12:19:00;;;;;;;;;;;;;;;8.15;86.14;100094.91;5051616;28;19908;-65
2022/12/30 12:21:30;;;;;;;;;;;;;;;8.18;86.54;100086.75;5051727;28;19999;-65
2022/12/30 12:23:59;;;;;;;;;;;;;;;8.20;87.11;100071.56;5066182;28;19913;-65
2022/12/30 12:26:27;;;;;;;;;;;;;;;8.20;87.09;100063.63;5050558;28;19916;-64
2022/12/30 12:28:53;;;;;;;;;;;;;;;8.10;88.26;100063.41;5051582;28;19916;-64
2022/12/30 12:31:38;;;;;;;;;;;;;;;8.11;88.84;100051.84;5051675;28;19908;-65
2022/12/30 12:34:10;;;;;;;;;;;;;;;8.07;89.49;100050.34;5044856;28;19909;-64
2022/12/30 12:36:38;;;;;;;;;;;;;;;8.07;90.05;100033.63;5083811;28;19916;-65
2022/12/30 12:39:09;;;;;;;;;;;;;;;8.00;91.12;100019.94;5083538;28;20360;-65
2022/12/30 12:41:51;;;;;;;;;;;;;;;8.02;91.39;100017.19;5083790;28;19909;-65
2022/12/30 12:44:25;;;;;;;;;;;;;;;7.91;93.57;100009.94;5070234;28;19913;-65
2022/12/30 12:47:09;;;;;;;;;;;;;;;7.88;92.93;99997.78;5070360;28;19962;-65
2022/12/30 12:49:53;;;;;;;;;;;;;;;7.90;93.11;99979.13;5071120;28;20041;-65
2022/12/30 12:52:38;;;;;;;;;;;;;;;7.88;93.49;99976.59;5061048;28;20370;-66
2022/12/30 12:55:22;;;;;;;;;;;;;;;7.80;95.48;99968.31;5044603;28;20016;-65
2022/12/30 12:57:57;;;;;;;;;;;;;;;7.79;95.31;99955.16;5051356;28;19948;-65
2022/12/30 13:00:23;;;;;;;;;;;;;;;7.79;96.04;99934.81;5050083;28;20337;-65
2022/12/30 13:03:00;;;;;;;;;;;;;;;7.80;96.00;99923.31;5050202;28;19915;-65
2022/12/30 13:05:37;;;;;;;;;;;;;;;7.75;96.56;99898.94;5055064;28;19959;-65
2022/12/30 13:08:08;;;;;;;;;;;;;;;7.74;97.08;99895.44;5071434;28;19994;-64
2022/12/30 13:10:41;;;;;;;;;;;;;;;7.55;97.38;99846.47;5068159;28;19913;-65
2022/12/30 13:13:19;;;;;;;;;;;;;;;7.66;98.80;99863.34;5070807;28;19916;-65
2022/12/30 13:15:50;;;;;;;;;;;;;;;7.66;99.23;99847.47;5069963;28;19909;-65
2022/12/30 13:18:18;;;;;;;;;;;;;;;7.69;99.31;99844.59;5070014;28;19912;-65
2022/12/30 13:20:49;;;;;;;;;;;;;;;7.79;98.65;99828.09;5069336;28;19951;-65
2022/12/30 13:23:17;;;;;;;;;;;;;;;7.72;99.66;99819.75;5070908;28;20329;-64
2022/12/30 13:25:46;;;;;;;;;;;;;;;7.72;99.46;99832.97;5070230;28;19953;-64
2022/12/30 13:28:23;;;;;;;;;;;;;;;7.77;99.45;99800.91;5068255;28;20303;-66
2022/12/30 13:30:57;;;;;;;;;;;;;;;7.71;100.00;99802.19;5052753;28;20352;-66
2022/12/30 13:33:43;;;;;;;;;;;;;;;7.71;100.00;99787.13;5054593;28;19917;-66
2022/12/30 13:36:19;;;;;;;;;;;;;;;7.73;100.00;99773.78;5054198;28;19917;-66
2022/12/30 13:38:47;;;;;;;;;;;;;;;7.70;100.00;99787.22;5055285;28;19913;-65
2022/12/30 13:41:21;;;;;;;;;;;;;;;7.76;100.00;99785.97;5090111;28;20004;-65
2022/12/30 13:43:55;;;;;;;;;;;;;;;7.71;100.00;99768.63;5073013;28;20409;-66